Time;durP1;ratioP1;P1;durP2;ratioP2;P2;SDS_P1;SDS_P2;PMS_P1;PMS_P2;Temp;Humidity;BMP_temperature;BMP_pressure;BME280_temperature;BME280_humidity;BME280_pressure;Samples;Min_cycle;Max_cycle;Signal;HPM_P1;HPM_P2
2022/12/04 00:02:23;;;;;;;40.63;25.33;;;22.20;38.20;;;;;;7710496;22;84383;-70
2022/12/04 00:05:24;;;;;;;38.35;24.45;;;22.20;38.20;;;;;;7712696;22;83297;-60
2022/12/04 00:08:24;;;;;;;41.08;24.50;;;22.20;38.20;;;;;;7710441;22;83815;-60
2022/12/04 00:11:25;;;;;;;34.05;23.42;;;22.20;38.20;;;;;;7714610;22;82893;-59
2022/12/04 00:14:25;;;;;;;39.10;25.13;;;22.20;38.20;;;;;;7710913;22;83455;-60
2022/12/04 00:17:26;;;;;;;37.92;23.85;;;22.20;38.20;;;;;;7710820;22;82632;-60
2022/12/04 00:20:26;;;;;;;36.50;22.83;;;22.20;38.20;;;;;;7713236;22;83092;-58
2022/12/04 00:23:27;;;;;;;37.30;24.58;;;22.20;38.20;;;;;;7712787;22;84396;-68
2022/12/04 00:26:27;;;;;;;37.50;24.08;;;22.20;38.20;;;;;;7713844;22;82790;-69
2022/12/04 00:29:28;;;;;;;34.97;23.98;;;22.20;38.20;;;;;;7711093;22;84415;-70
2022/12/04 00:32:29;;;;;;;35.45;22.90;;;22.10;38.10;;;;;;7683920;22;84198;-69
2022/12/04 00:35:29;;;;;;;34.08;23.50;;;22.20;38.20;;;;;;7714376;22;83113;-69
2022/12/04 00:38:30;;;;;;;35.95;23.90;;;22.20;38.20;;;;;;7707668;22;82854;-68
2022/12/04 00:41:30;;;;;;;32.42;23.00;;;22.10;38.00;;;;;;7713673;22;82974;-60
2022/12/04 00:44:30;;;;;;;35.80;23.65;;;22.20;38.10;;;;;;7707925;22;84536;-61
2022/12/04 00:47:31;;;;;;;34.35;22.67;;;22.10;38.20;;;;;;7714978;22;83564;-61
2022/12/04 00:50:31;;;;;;;33.58;22.67;;;22.10;38.20;;;;;;7710035;22;83640;-62
2022/12/04 00:53:32;;;;;;;32.65;21.95;;;22.10;38.00;;;;;;7710787;22;83320;-62
2022/12/04 00:56:32;;;;;;;33.55;22.83;;;22.10;38.10;;;;;;7710613;22;82947;-60
2022/12/04 00:59:33;;;;;;;33.38;22.25;;;22.10;38.00;;;;;;7714207;22;83497;-62
2022/12/04 01:02:33;;;;;;;30.30;21.60;;;22.10;38.00;;;;;;7711092;22;83299;-63
2022/12/04 01:05:34;;;;;;;35.83;22.88;;;22.10;37.90;;;;;;7710400;22;83104;-62
2022/12/04 01:08:34;;;;;;;31.38;21.60;;;22.10;37.90;;;;;;7710120;22;84860;-62
2022/12/04 01:11:35;;;;;;;33.35;22.42;;;22.10;37.90;;;;;;7713858;22;82805;-62
2022/12/04 01:14:35;;;;;;;33.88;22.30;;;22.10;37.90;;;;;;7712977;22;84477;-62
2022/12/04 01:17:36;;;;;;;33.85;21.33;;;22.10;37.80;;;;;;7712286;22;82929;-60
2022/12/04 01:20:36;;;;;;;33.35;21.58;;;22.10;38.00;;;;;;7710284;22;83558;-59
2022/12/04 01:23:37;;;;;;;29.63;20.65;;;22.10;37.90;;;;;;7712684;22;84076;-61
2022/12/04 01:26:37;;;;;;;31.42;21.50;;;22.10;37.80;;;;;;7710726;22;83735;-60
2022/12/04 01:29:37;;;;;;;29.85;20.83;;;22.10;37.80;;;;;;7711853;22;85190;-60
2022/12/04 01:32:38;;;;;;;30.20;20.45;;;22.10;37.70;;;;;;7711374;22;83262;-61
2022/12/04 01:35:38;;;;;;;31.70;21.35;;;22.10;37.90;;;;;;7712410;22;84945;-60
2022/12/04 01:38:39;;;;;;;32.08;22.00;;;22.10;37.80;;;;;;7713406;22;83997;-60
2022/12/04 01:41:39;;;;;;;30.23;21.25;;;22.10;37.80;;;;;;7710336;22;83264;-61
2022/12/04 01:44:40;;;;;;;29.23;20.00;;;22.10;37.80;;;;;;7709755;22;83413;-61
2022/12/04 01:47:40;;;;;;;31.33;21.40;;;22.10;37.90;;;;;;7714157;22;82887;-61
2022/12/04 01:50:41;;;;;;;28.90;19.58;;;22.10;37.80;;;;;;7710193;22;83426;-60
2022/12/04 01:53:41;;;;;;;27.98;19.80;;;22.10;37.90;;;;;;7710081;22;82812;-72
2022/12/04 01:56:42;;;;;;;30.90;20.48;;;22.10;37.90;;;;;;7708570;22;82929;-71
2022/12/04 01:59:42;;;;;;;29.25;20.23;;;22.00;37.80;;;;;;7710650;22;84069;-70
2022/12/04 02:02:43;;;;;;;28.73;19.85;;;22.10;37.90;;;;;;7710825;22;83026;-71
2022/12/04 02:05:43;;;;;;;26.67;18.50;;;22.00;38.00;;;;;;7712191;22;83103;-72
2022/12/04 02:08:44;;;;;;;28.42;19.95;;;22.10;38.00;;;;;;7714441;22;83296;-70
2022/12/04 02:11:44;;;;;;;28.00;19.40;;;22.00;37.90;;;;;;7710093;22;85479;-71
2022/12/04 02:14:45;;;;;;;27.10;18.25;;;22.00;38.60;;;;;;7713076;22;83480;-71
2022/12/04 02:17:45;;;;;;;29.65;19.52;;;22.00;38.00;;;;;;7713569;22;83003;-69
2022/12/04 02:20:46;;;;;;;25.40;18.27;;;22.00;38.00;;;;;;7715710;22;82738;-70
2022/12/04 02:23:46;;;;;;;27.40;18.08;;;22.00;38.00;;;;;;7712416;22;82975;-69
2022/12/04 02:26:47;;;;;;;26.63;18.42;;;22.00;37.90;;;;;;7714909;22;89151;-68
2022/12/04 02:29:47;;;;;;;25.88;18.25;;;22.00;38.00;;;;;;7684647;22;83800;-71
2022/12/04 02:32:48;;;;;;;28.85;18.77;;;22.00;38.00;;;;;;7712426;22;83444;-70
2022/12/04 02:35:48;;;;;;;24.50;17.17;;;22.00;38.00;;;;;;7715386;22;83296;-70
2022/12/04 02:38:49;;;;;;;24.50;17.25;;;22.00;37.90;;;;;;7708997;22;83389;-71
2022/12/04 02:41:49;;;;;;;24.55;17.42;;;22.00;37.90;;;;;;7714603;22;83163;-71
2022/12/04 02:44:50;;;;;;;26.38;17.95;;;22.00;37.90;;;;;;7712501;22;82902;-70
2022/12/04 02:47:50;;;;;;;25.52;17.50;;;22.00;37.80;;;;;;7711589;22;84114;-67
2022/12/04 02:50:51;;;;;;;21.17;16.25;;;22.00;37.90;;;;;;7712471;22;82755;-72
2022/12/04 02:53:51;;;;;;;22.98;16.13;;;22.00;37.90;;;;;;7711811;22;82934;-72
2022/12/04 02:56:51;;;;;;;24.40;17.67;;;22.00;37.90;;;;;;7712254;22;89158;-73
2022/12/04 02:59:52;;;;;;;24.17;17.00;;;22.00;37.80;;;;;;7715935;22;83349;-73
2022/12/04 03:02:52;;;;;;;23.23;16.58;;;22.00;37.90;;;;;;7711144;22;83179;-72
2022/12/04 03:05:53;;;;;;;26.30;18.30;;;22.00;37.90;;;;;;7709058;22;84631;-71
2022/12/04 03:08:53;;;;;;;23.33;16.95;;;22.00;37.90;;;;;;7714761;22;83105;-73
2022/12/04 03:11:54;;;;;;;22.10;16.17;;;22.00;37.90;;;;;;7715170;22;83367;-72
2022/12/04 03:14:54;;;;;;;24.10;16.77;;;22.00;37.90;;;;;;7711468;22;82594;-70
2022/12/04 03:17:55;;;;;;;24.98;17.05;;;22.00;37.90;;;;;;7711366;22;83058;-71
2022/12/04 03:20:55;;;;;;;24.98;17.50;;;22.00;37.90;;;;;;7710792;22;84379;-74
2022/12/04 03:23:56;;;;;;;23.52;16.10;;;22.00;38.00;;;;;;7714212;22;82631;-71
2022/12/04 03:26:56;;;;;;;21.25;15.38;;;22.00;37.90;;;;;;7711110;22;82654;-65
2022/12/04 03:29:57;;;;;;;23.05;15.90;;;22.00;38.00;;;;;;7714906;22;83027;-65
2022/12/04 03:32:57;;;;;;;25.95;16.48;;;22.00;38.00;;;;;;7710967;22;83182;-68
2022/12/04 03:35:58;;;;;;;26.50;17.98;;;22.00;38.10;;;;;;7711185;22;83004;-66
2022/12/04 03:38:58;;;;;;;23.83;16.65;;;22.00;38.00;;;;;;7714979;22;83264;-66
2022/12/04 03:41:59;;;;;;;20.17;15.70;;;22.00;38.10;;;;;;7710686;22;83825;-68
2022/12/04 03:44:59;;;;;;;22.73;16.25;;;21.90;38.10;;;;;;7711544;22;83109;-68
2022/12/04 03:48:00;;;;;;;23.25;16.10;;;21.90;38.70;;;;;;7712598;22;84977;-65
2022/12/04 03:51:00;;;;;;;24.10;16.67;;;21.90;38.10;;;;;;7714475;22;82505;-66
2022/12/04 03:54:01;;;;;;;23.88;16.33;;;22.00;38.20;;;;;;7711935;22;83027;-66
2022/12/04 03:57:01;;;;;;;21.15;15.23;;;21.90;38.10;;;;;;7710858;22;83334;-67
2022/12/04 04:00:04;;;;;;;21.90;15.95;;;22.00;38.20;;;;;;7711355;22;83463;-68
2022/12/04 04:03:05;;;;;;;22.02;15.15;;;22.00;38.20;;;;;;7712059;22;83043;-69
2022/12/04 04:06:05;;;;;;;23.73;15.80;;;21.90;38.10;;;;;;7711660;22;83087;-70
2022/12/04 04:09:06;;;;;;;22.65;15.48;;;22.00;38.40;;;;;;7714022;22;83507;-69
2022/12/04 04:12:06;;;;;;;20.40;15.90;;;21.90;38.30;;;;;;7714750;22;83370;-69
2022/12/04 04:25:04;;;;;;;20.90;14.85;;;22.10;38.00;;;;;;7710635;22;84826;-61
2022/12/04 04:28:05;;;;;;;19.35;13.95;;;22.10;38.00;;;;;;7714321;22;82941;-61
2022/12/04 04:31:05;;;;;;;20.60;14.80;;;22.20;37.90;;;;;;7683731;22;83335;-59
2022/12/04 04:34:06;;;;;;;19.60;14.43;;;22.30;37.80;;;;;;7711063;22;82894;-60
2022/12/04 04:37:06;;;;;;;19.48;13.70;;;22.30;37.80;;;;;;7712424;22;83065;-62
2022/12/04 04:40:07;;;;;;;18.85;13.98;;;22.30;37.60;;;;;;7706293;22;83199;-61
2022/12/04 04:43:07;;;;;;;20.17;14.23;;;22.40;37.80;;;;;;7713534;22;83477;-60
2022/12/04 04:46:08;;;;;;;16.77;12.85;;;22.40;37.70;;;;;;7711853;22;82700;-59
2022/12/04 04:49:08;;;;;;;16.63;12.45;;;22.40;37.60;;;;;;7714103;22;83607;-60
2022/12/04 04:52:09;;;;;;;16.17;12.48;;;22.50;37.50;;;;;;7711152;22;83165;-60
2022/12/04 04:55:09;;;;;;;17.88;12.48;;;22.50;37.50;;;;;;7711224;22;83447;-60
2022/12/04 04:58:09;;;;;;;18.13;12.98;;;22.50;37.50;;;;;;7712309;22;83428;-59
2022/12/04 05:01:10;;;;;;;17.90;13.02;;;22.60;37.40;;;;;;7712305;22;83403;-61
2022/12/04 05:04:10;;;;;;;17.10;12.15;;;22.60;37.40;;;;;;7683608;22;83346;-61
2022/12/04 05:07:11;;;;;;;14.48;11.25;;;22.60;37.40;;;;;;7704975;22;83401;-62
2022/12/04 05:10:12;;;;;;;17.48;11.90;;;22.60;37.50;;;;;;7706273;22;82860;-59
2022/12/04 05:13:13;;;;;;;18.75;13.13;;;22.60;37.40;;;;;;7705243;22;83116;-61
2022/12/04 05:16:13;;;;;;;16.20;11.43;;;22.60;37.40;;;;;;7701821;22;83112;-61
2022/12/04 05:22:34;;;;;;;17.05;11.70;;;22.70;37.40;;;;;;7705386;22;82924;-61
2022/12/04 05:25:35;;;;;;;16.30;11.80;;;22.70;37.40;;;;;;7705917;22;83479;-61
2022/12/04 05:28:35;;;;;;;16.02;11.63;;;22.70;37.30;;;;;;7705024;22;82885;-60
2022/12/04 05:31:36;;;;;;;15.48;11.90;;;22.70;37.40;;;;;;7704676;22;82973;-61
2022/12/04 05:34:36;;;;;;;16.15;11.95;;;22.70;37.40;;;;;;7676659;22;83379;-60
2022/12/04 05:37:37;;;;;;;17.23;12.20;;;22.70;37.30;;;;;;7705776;22;83288;-59
2022/12/04 05:40:37;;;;;;;18.65;12.38;;;22.80;37.30;;;;;;7711520;22;82813;-59
2022/12/04 05:43:38;;;;;;;17.20;12.35;;;22.80;37.30;;;;;;7709636;22;83011;-60
2022/12/04 05:46:38;;;;;;;15.35;11.48;;;22.80;37.20;;;;;;7712049;22;83577;-60
2022/12/04 05:49:39;;;;;;;14.52;10.30;;;22.80;37.10;;;;;;7710965;22;83092;-60
2022/12/04 05:52:39;;;;;;;15.98;10.93;;;22.80;37.10;;;;;;7705866;22;83980;-68
2022/12/04 05:55:40;;;;;;;14.90;11.10;;;22.80;37.20;;;;;;7714800;22;84413;-67
2022/12/04 05:58:40;;;;;;;14.05;10.25;;;22.80;37.30;;;;;;7712732;22;83296;-67
2022/12/04 06:01:40;;;;;;;15.50;10.77;;;22.80;37.30;;;;;;7714027;22;83035;-73
2022/12/04 06:04:41;;;;;;;14.75;10.90;;;22.80;37.40;;;;;;7712981;22;83841;-73
2022/12/04 06:07:41;;;;;;;13.73;10.18;;;22.80;37.40;;;;;;7681068;22;84112;-71
2022/12/04 06:10:42;;;;;;;15.75;11.25;;;22.80;37.40;;;;;;7715546;22;83414;-69
2022/12/04 06:13:42;;;;;;;13.43;9.80;;;22.80;37.40;;;;;;7713840;22;83073;-64
2022/12/04 06:16:43;;;;;;;15.23;10.02;;;22.80;37.40;;;;;;7716352;22;82774;-66
2022/12/04 06:19:43;;;;;;;14.93;10.27;;;22.80;37.40;;;;;;7708583;22;83282;-66
2022/12/04 06:22:44;;;;;;;13.00;9.82;;;22.80;37.40;;;;;;7712136;22;83005;-64
2022/12/04 06:25:44;;;;;;;14.48;10.48;;;22.80;37.40;;;;;;7719712;22;83230;-65
2022/12/04 06:28:45;;;;;;;13.82;10.32;;;22.80;37.40;;;;;;7686367;22;84378;-65
2022/12/04 06:31:45;;;;;;;13.38;9.90;;;22.80;37.40;;;;;;7711572;22;83173;-66
2022/12/04 06:34:46;;;;;;;15.73;10.27;;;22.70;37.50;;;;;;7708557;22;83507;-67
2022/12/04 06:37:47;;;;;;;15.05;10.32;;;22.70;37.60;;;;;;7714152;22;82585;-69
2022/12/04 06:40:47;;;;;;;13.93;9.98;;;22.60;37.50;;;;;;7708799;22;83789;-70
2022/12/04 06:43:47;;;;;;;12.10;9.45;;;22.60;37.50;;;;;;7710966;22;82856;-69
2022/12/04 06:46:48;;;;;;;13.65;9.63;;;22.60;37.60;;;;;;7713505;22;83885;-70
2022/12/04 06:49:49;;;;;;;13.50;9.30;;;22.50;37.60;;;;;;7714291;22;80336;-66
2022/12/04 06:52:49;;;;;;;12.80;9.88;;;22.50;37.70;;;;;;7719113;22;80629;-69
2022/12/04 06:55:50;;;;;;;14.05;10.18;;;22.50;37.70;;;;;;7717916;22;81157;-67
2022/12/04 06:58:50;;;;;;;14.70;10.60;;;22.50;37.70;;;;;;7715681;22;83435;-67
2022/12/04 07:01:51;;;;;;;13.40;9.40;;;22.40;37.70;;;;;;7712568;22;83666;-65
2022/12/04 07:04:51;;;;;;;12.50;9.82;;;22.40;37.80;;;;;;7714809;22;83048;-69
2022/12/04 07:07:52;;;;;;;14.27;9.93;;;22.40;37.80;;;;;;7718932;22;86970;-67
2022/12/04 07:10:52;;;;;;;15.15;10.23;;;22.40;37.70;;;;;;7718202;22;80580;-69
2022/12/04 07:13:53;;;;;;;13.88;10.10;;;22.40;37.70;;;;;;7715659;22;83018;-66
2022/12/04 07:16:53;;;;;;;11.18;8.38;;;22.40;37.90;;;;;;7708973;22;82988;-69
2022/12/04 07:19:54;;;;;;;13.48;9.80;;;22.40;37.90;;;;;;7708080;22;83020;-68
2022/12/04 07:22:54;;;;;;;13.27;9.95;;;22.40;37.90;;;;;;7712516;22;80458;-68
2022/12/04 07:25:54;;;;;;;12.13;9.02;;;22.30;37.90;;;;;;7712734;22;80324;-69
2022/12/04 07:28:55;;;;;;;12.32;9.02;;;22.30;37.90;;;;;;7689459;22;81884;-69
2022/12/04 07:31:55;;;;;;;12.95;9.93;;;22.30;38.00;;;;;;7715875;22;81834;-69
2022/12/04 07:34:56;;;;;;;12.95;9.27;;;22.30;37.80;;;;;;7691049;22;81376;-71
2022/12/04 07:37:56;;;;;;;12.43;9.60;;;22.30;38.40;;;;;;7713365;22;80481;-68
2022/12/04 07:40:57;;;;;;;12.70;9.95;;;22.30;37.70;;;;;;7717579;22;80514;-68
2022/12/04 07:43:58;;;;;;;12.60;9.80;;;22.20;37.70;;;;;;7713622;22;82235;-70
2022/12/04 07:46:58;;;;;;;14.57;9.98;;;22.20;37.70;;;;;;7709588;22;80675;-70
2022/12/04 07:49:58;;;;;;;11.95;8.98;;;22.20;37.90;;;;;;7712572;22;82614;-69
2022/12/04 07:52:59;;;;;;;12.23;9.38;;;22.20;38.00;;;;;;7719598;22;83570;-66
2022/12/04 07:55:59;;;;;;;14.50;9.45;;;22.20;39.00;;;;;;7715856;22;80300;-67
2022/12/04 07:59:00;;;;;;;14.02;10.27;;;22.10;39.70;;;;;;7711142;22;81183;-65
2022/12/04 08:02:00;;;;;;;12.90;9.98;;;22.20;41.20;;;;;;7703444;22;83884;-60
2022/12/04 08:05:01;;;;;;;10.18;8.43;;;22.10;41.70;;;;;;7708611;22;83617;-60
2022/12/04 08:08:01;;;;;;;13.73;9.27;;;22.10;42.00;;;;;;7718318;22;82736;-59
2022/12/04 08:11:02;;;;;;;13.68;10.23;;;22.10;43.30;;;;;;7714445;22;86004;-61
2022/12/04 08:14:02;;;;;;;12.50;8.20;;;22.10;44.50;;;;;;7715283;22;83085;-57
2022/12/04 08:17:03;;;;;;;11.88;9.15;;;22.10;44.00;;;;;;7717184;22;83575;-59
2022/12/04 08:20:03;;;;;;;12.23;9.80;;;22.10;44.20;;;;;;7691465;22;82196;-69
2022/12/04 08:23:04;;;;;;;12.68;9.63;;;22.10;44.80;;;;;;7713175;22;81173;-65
2022/12/04 08:26:04;;;;;;;15.15;9.32;;;22.10;45.80;;;;;;7719959;22;80479;-67
2022/12/04 08:29:05;;;;;;;11.32;9.40;;;22.10;45.60;;;;;;7721058;22;80882;-67
2022/12/04 08:32:06;;;;;;;12.00;8.98;;;22.00;45.90;;;;;;7716226;22;81040;-66
2022/12/04 08:35:06;;;;;;;11.93;8.77;;;22.00;46.40;;;;;;7716977;22;81491;-65
2022/12/04 08:38:07;;;;;;;12.73;9.45;;;22.10;46.80;;;;;;7703572;22;82174;-68
2022/12/04 08:41:07;;;;;;;13.02;9.05;;;22.00;46.70;;;;;;7714828;22;80701;-64
2022/12/04 08:44:07;;;;;;;12.88;9.35;;;22.10;47.10;;;;;;7709412;22;80779;-68
2022/12/04 08:47:08;;;;;;;14.32;9.63;;;22.10;47.20;;;;;;7708445;22;80584;-65
2022/12/04 08:50:08;;;;;;;11.88;9.00;;;22.10;47.00;;;;;;7707942;22;80247;-65
2022/12/04 08:53:09;;;;;;;10.43;8.30;;;22.20;47.30;;;;;;7706100;22;80981;-67
2022/12/04 08:56:09;;;;;;;12.52;8.73;;;22.20;47.10;;;;;;7711896;22;80229;-60
2022/12/04 08:59:10;;;;;;;10.98;8.52;;;22.20;47.00;;;;;;7713191;22;80719;-60
2022/12/04 09:02:11;;;;;;;13.43;9.50;;;22.20;47.10;;;;;;7713610;22;80325;-59
2022/12/04 09:05:12;;;;;;;12.43;9.00;;;22.30;47.20;;;;;;7717085;22;80330;-59
2022/12/04 09:08:12;;;;;;;13.80;9.55;;;22.30;46.90;;;;;;7718268;22;81956;-60
2022/12/04 09:11:13;;;;;;;11.93;9.38;;;22.30;46.90;;;;;;7716800;22;80581;-59
2022/12/04 09:14:13;;;;;;;11.68;8.82;;;22.40;47.00;;;;;;7713994;22;80074;-60
2022/12/04 09:17:14;;;;;;;13.07;9.18;;;22.50;46.90;;;;;;7720711;22;80243;-61
2022/12/04 09:20:14;;;;;;;12.75;9.02;;;22.50;46.90;;;;;;7716126;22;80283;-60
2022/12/04 09:23:15;;;;;;;15.02;10.15;;;22.60;47.70;;;;;;7718072;22;80442;-60
2022/12/04 09:26:17;;;;;;;14.98;9.48;;;22.60;48.50;;;;;;7715173;22;82613;-60
2022/12/04 09:29:18;;;;;;;12.80;9.48;;;22.60;49.00;;;;;;7716412;22;81948;-58
2022/12/04 09:32:18;;;;;;;10.40;8.70;;;22.60;49.40;;;;;;7717272;22;80715;-61
2022/12/04 09:35:19;;;;;;;14.82;9.68;;;22.70;50.00;;;;;;7717682;22;80499;-60
2022/12/04 09:38:19;;;;;;;13.73;9.73;;;22.70;50.20;;;;;;7715744;22;81864;-60
2022/12/04 09:41:20;;;;;;;13.18;9.60;;;22.70;50.50;;;;;;7719147;22;80929;-60
2022/12/04 09:44:20;;;;;;;14.85;9.80;;;22.70;51.00;;;;;;7716378;22;80927;-64
2022/12/04 09:47:21;;;;;;;15.15;9.90;;;22.70;51.50;;;;;;7710761;22;80621;-66
2022/12/04 09:50:21;;;;;;;14.05;10.23;;;22.70;52.50;;;;;;7717798;22;80488;-65
2022/12/04 09:53:22;;;;;;;11.43;9.02;;;22.70;53.30;;;;;;7715199;22;84265;-67
2022/12/04 09:56:22;;;;;;;11.88;9.40;;;22.70;52.90;;;;;;7717245;22;82869;-66
2022/12/04 09:59:23;;;;;;;12.30;10.15;;;22.70;53.30;;;;;;7714218;22;80733;-67
2022/12/04 10:02:24;;;;;;;14.38;10.48;;;22.70;53.60;;;;;;7712241;22;82853;-67
2022/12/04 10:05:24;;;;;;;13.57;9.82;;;22.70;54.00;;;;;;7715082;22;83550;-66
2022/12/04 10:08:25;;;;;;;14.35;10.82;;;22.70;54.40;;;;;;7712338;22;82753;-61
2022/12/04 10:11:25;;;;;;;13.40;10.13;;;22.70;54.60;;;;;;7703076;22;83834;-60
2022/12/04 10:14:25;;;;;;;14.32;10.77;;;22.70;54.80;;;;;;7708707;22;84207;-60
2022/12/04 10:17:26;;;;;;;17.48;11.18;;;22.70;54.80;;;;;;7714200;22;83621;-61
2022/12/04 10:20:26;;;;;;;17.73;11.13;;;22.70;54.70;;;;;;7715264;22;83032;-59
2022/12/04 10:23:27;;;;;;;15.50;10.73;;;22.70;54.80;;;;;;7711939;22;83166;-60
2022/12/04 10:26:27;;;;;;;16.02;11.20;;;22.70;54.90;;;;;;7702324;22;82864;-68
2022/12/04 10:29:28;;;;;;;18.13;11.63;;;22.80;54.70;;;;;;7705417;22;83197;-65
2022/12/04 10:32:28;;;;;;;15.20;10.70;;;22.70;55.00;;;;;;7709239;22;83201;-67
2022/12/04 10:35:29;;;;;;;15.18;11.27;;;22.80;55.10;;;;;;7709194;22;83616;-69
2022/12/04 10:38:29;;;;;;;15.63;10.55;;;22.80;55.40;;;;;;7685222;22;84691;-66
2022/12/04 10:41:30;;;;;;;14.40;10.75;;;22.80;55.50;;;;;;7712289;22;84021;-64
2022/12/04 10:44:30;;;;;;;12.70;10.30;;;22.80;55.80;;;;;;7715443;22;83121;-66
2022/12/04 10:47:31;;;;;;;15.43;11.55;;;22.80;55.90;;;;;;7714979;22;83104;-64
2022/12/04 10:50:31;;;;;;;87.15;40.05;;;22.80;56.10;;;;;;7716635;22;82486;-65
2022/12/04 10:53:32;;;;;;;138.27;67.00;;;22.80;55.70;;;;;;7716072;22;83992;-64
2022/12/04 10:56:32;;;;;;;117.50;59.13;;;22.80;56.10;;;;;;7708588;22;83475;-67
2022/12/04 10:59:33;;;;;;;106.32;52.67;;;22.80;56.50;;;;;;7716858;22;83186;-69
2022/12/04 11:02:33;;;;;;;87.70;43.03;;;22.70;56.20;;;;;;7714551;22;83408;-66
2022/12/04 11:05:34;;;;;;;74.13;38.15;;;22.70;55.60;;;;;;7713689;22;83398;-68
2022/12/04 11:08:35;;;;;;;66.47;32.80;;;22.80;55.50;;;;;;7716525;22;83039;-66
2022/12/04 11:11:35;;;;;;;58.95;30.25;;;22.70;55.20;;;;;;7709248;22;83650;-67
2022/12/04 11:14:36;;;;;;;51.15;26.45;;;22.70;55.30;;;;;;7713460;22;84030;-67
2022/12/04 11:17:36;;;;;;;42.38;23.27;;;22.70;55.10;;;;;;7714049;22;83282;-68
2022/12/04 11:20:37;;;;;;;40.88;22.63;;;22.70;55.00;;;;;;7717223;22;84782;-69
2022/12/04 11:23:37;;;;;;;39.83;22.52;;;22.80;54.80;;;;;;7715163;22;83176;-61
2022/12/04 11:26:38;;;;;;;42.03;21.88;;;22.80;54.70;;;;;;7713263;22;83454;-61
2022/12/04 11:29:38;;;;;;;41.05;21.55;;;22.90;54.60;;;;;;7714065;22;83090;-61
2022/12/04 11:32:40;;;;;;;34.22;21.58;;;23.10;54.00;;;;;;7709753;22;83334;-62
2022/12/04 11:35:41;;;;;;;33.97;19.40;;;23.30;53.40;;;;;;7717236;22;83694;-63
2022/12/04 11:38:41;;;;;;;33.50;18.80;;;23.50;52.70;;;;;;7708106;22;84105;-63
2022/12/04 11:41:42;;;;;;;31.48;18.35;;;23.70;52.00;;;;;;7706602;22;84486;-68
2022/12/04 11:44:42;;;;;;;29.60;17.67;;;23.80;51.70;;;;;;7707530;22;83988;-68
2022/12/04 11:47:43;;;;;;;26.83;18.13;;;24.00;51.20;;;;;;7709437;22;83148;-67
2022/12/04 11:50:43;;;;;;;30.60;17.63;;;24.10;50.70;;;;;;7708057;22;83272;-66
2022/12/04 11:53:44;;;;;;;31.58;17.73;;;24.30;50.40;;;;;;7705578;22;83185;-65
2022/12/04 11:56:44;;;;;;;26.38;16.73;;;24.40;50.30;;;;;;7706242;22;83057;-66
2022/12/04 11:59:45;;;;;;;28.23;15.13;;;24.50;50.00;;;;;;7709658;22;83038;-64
2022/12/04 12:02:45;;;;;;;25.27;15.75;;;24.60;49.70;;;;;;7680377;22;86017;-65
2022/12/04 12:05:46;;;;;;;23.90;15.07;;;24.70;49.40;;;;;;7707867;22;83696;-67
2022/12/04 12:08:46;;;;;;;23.90;15.02;;;24.90;49.20;;;;;;7710735;22;84462;-61
2022/12/04 12:11:47;;;;;;;24.30;14.52;;;24.90;49.50;;;;;;7713114;22;83478;-61
2022/12/04 12:14:47;;;;;;;23.45;14.73;;;25.00;49.20;;;;;;7715425;22;83434;-63
2022/12/04 12:17:48;;;;;;;23.50;14.15;;;25.10;49.00;;;;;;7714472;22;82884;-61
2022/12/04 12:20:48;;;;;;;26.35;14.43;;;25.30;49.00;;;;;;7714927;22;84043;-59
2022/12/04 12:23:49;;;;;;;18.92;13.43;;;25.30;48.30;;;;;;7683680;22;84909;-63
2022/12/04 12:26:49;;;;;;;21.90;13.05;;;25.40;48.20;;;;;;7715560;22;83172;-65
2022/12/04 12:29:50;;;;;;;18.35;12.32;;;25.50;48.50;;;;;;7713359;22;82660;-63
2022/12/04 12:32:52;;;;;;;18.35;11.50;;;25.60;48.10;;;;;;7710678;22;83222;-62
2022/12/04 12:35:53;;;;;;;20.40;12.80;;;25.60;47.90;;;;;;7714089;22;83469;-60
2022/12/04 12:38:53;;;;;;;18.25;12.07;;;25.70;47.70;;;;;;7712993;22;83169;-64
2022/12/04 12:41:54;;;;;;;19.75;11.15;;;25.70;47.50;;;;;;7712718;22;83109;-62
2022/12/04 12:44:54;;;;;;;20.55;11.38;;;25.80;47.50;;;;;;7712979;22;82880;-65
2022/12/04 12:47:55;;;;;;;17.15;11.88;;;25.80;47.40;;;;;;7708289;22;83011;-62
2022/12/04 12:50:55;;;;;;;14.18;10.15;;;25.90;47.30;;;;;;7705111;22;83608;-62
2022/12/04 12:53:55;;;;;;;17.85;11.75;;;25.90;47.10;;;;;;7708191;22;83450;-63
2022/12/04 12:56:56;;;;;;;16.13;10.68;;;25.90;46.90;;;;;;7713850;22;84228;-71
2022/12/04 12:59:56;;;;;;;18.10;11.27;;;25.90;46.80;;;;;;7709712;22;84607;-71
2022/12/04 13:02:57;;;;;;;16.85;10.55;;;26.00;47.00;;;;;;7708394;22;83705;-72
2022/12/04 13:05:57;;;;;;;14.65;10.20;;;26.00;46.90;;;;;;7703330;22;84040;-70
2022/12/04 13:08:58;;;;;;;13.82;10.02;;;26.00;46.80;;;;;;7708529;22;83196;-71
2022/12/04 13:11:59;;;;;;;15.30;9.85;;;26.00;46.70;;;;;;7705179;22;83341;-69
2022/12/04 13:14:59;;;;;;;12.93;9.27;;;26.00;46.70;;;;;;7713471;22;83259;-67
2022/12/04 13:18:00;;;;;;;11.75;9.15;;;25.90;46.70;;;;;;7715553;22;81338;-67
2022/12/04 13:21:00;;;;;;;13.45;9.20;;;25.90;46.70;;;;;;7712467;22;80705;-65
2022/12/04 13:24:01;;;;;;;15.20;10.18;;;25.80;46.40;;;;;;7716271;22;80626;-69
2022/12/04 13:27:01;;;;;;;12.40;9.60;;;25.70;46.60;;;;;;7714876;22;82781;-66
2022/12/04 13:30:02;;;;;;;12.68;8.75;;;25.70;46.40;;;;;;7717898;22;82920;-67
2022/12/04 13:33:02;;;;;;;14.23;9.68;;;25.70;46.50;;;;;;7714498;22;80458;-69
2022/12/04 13:36:03;;;;;;;11.93;8.77;;;25.60;46.70;;;;;;7714648;22;80470;-70
2022/12/04 13:39:03;;;;;;;11.38;8.95;;;25.50;46.80;;;;;;7716512;22;80587;-67
2022/12/04 13:42:04;;;;;;;11.70;8.50;;;25.40;46.90;;;;;;7715752;22;80768;-71
2022/12/04 13:45:04;;;;;;;13.60;8.18;;;25.30;47.20;;;;;;7717562;22;80531;-68
2022/12/04 13:48:05;;;;;;;10.57;8.05;;;25.20;47.60;;;;;;7713320;22;80372;-70
2022/12/04 13:51:05;;;;;;;11.73;9.20;;;25.10;47.80;;;;;;7707996;22;81718;-63
2022/12/04 13:54:06;;;;;;;10.90;8.43;;;25.00;47.60;;;;;;7713595;22;80183;-62
2022/12/04 13:57:06;;;;;;;11.02;8.00;;;24.90;48.40;;;;;;7712655;22;81713;-61
2022/12/04 14:00:07;;;;;;;12.43;8.75;;;24.70;48.10;;;;;;7717486;22;80819;-59
2022/12/04 14:03:12;;;;;;;10.27;7.87;;;24.60;48.40;;;;;;7717172;22;81355;-62
2022/12/04 14:06:12;;;;;;;13.07;9.15;;;24.60;49.00;;;;;;7713074;22;81041;-65
2022/12/04 14:09:13;;;;;;;12.70;8.63;;;24.40;48.80;;;;;;7721033;22;80366;-62
2022/12/04 14:12:13;;;;;;;15.52;9.73;;;24.30;49.20;;;;;;7712053;22;80390;-63
2022/12/04 14:15:14;;;;;;;12.02;8.10;;;24.30;49.50;;;;;;7713954;22;80344;-63
2022/12/04 14:18:14;;;;;;;11.38;8.48;;;24.20;49.50;;;;;;7706878;22;80339;-61
2022/12/04 14:21:15;;;;;;;12.20;8.65;;;24.10;49.70;;;;;;7711525;22;80491;-62
2022/12/04 14:24:16;;;;;;;10.98;7.75;;;24.00;49.70;;;;;;7710857;22;80921;-62
2022/12/04 14:27:16;;;;;;;9.35;7.35;;;23.90;50.40;;;;;;7714592;22;80523;-62
2022/12/04 14:30:17;;;;;;;11.48;8.10;;;23.80;49.90;;;;;;7717313;22;81125;-60
2022/12/04 14:33:18;;;;;;;12.07;8.70;;;23.70;50.30;;;;;;7711586;22;80623;-59
2022/12/04 14:36:18;;;;;;;12.40;7.93;;;23.60;50.30;;;;;;7720407;22;81692;-60
2022/12/04 14:39:19;;;;;;;10.90;8.40;;;23.60;50.30;;;;;;7714952;22;80597;-60
2022/12/04 14:42:19;;;;;;;12.02;8.70;;;23.50;50.30;;;;;;7718325;22;80202;-62
2022/12/04 14:45:20;;;;;;;10.90;8.18;;;23.50;50.60;;;;;;7717222;22;80634;-65
2022/12/04 14:48:20;;;;;;;13.32;9.25;;;23.40;50.50;;;;;;7713697;22;81187;-63
2022/12/04 14:51:21;;;;;;;12.70;8.85;;;23.30;50.20;;;;;;7719339;22;81318;-62
2022/12/04 14:54:21;;;;;;;11.00;8.43;;;23.40;50.80;;;;;;7717404;22;80289;-61
2022/12/04 14:57:22;;;;;;;16.00;11.18;;;23.40;50.20;;;;;;7721510;22;81366;-68
2022/12/04 15:00:22;;;;;;;18.50;12.65;;;23.30;46.80;;;;;;7711421;22;83313;-70
2022/12/04 15:03:23;;;;;;;18.92;13.45;;;22.80;45.20;;;;;;7710354;22;83044;-64
2022/12/04 15:06:23;;;;;;;15.18;11.60;;;22.40;44.00;;;;;;7707696;22;84673;-66
2022/12/04 15:12:43;;;;;;;18.58;12.38;;;22.70;47.30;;;;;;7706572;22;83119;-64
2022/12/04 15:15:44;;;;;;;19.20;12.25;;;22.90;47.60;;;;;;7712855;22;83056;-63
2022/12/04 15:18:44;;;;;;;23.92;14.25;;;23.00;47.90;;;;;;7709666;22;82736;-65
2022/12/04 15:21:45;;;;;;;18.75;12.93;;;23.10;47.70;;;;;;7715143;22;83947;-62
2022/12/04 15:24:45;;;;;;;27.92;14.55;;;23.10;47.70;;;;;;7714545;22;82780;-61
2022/12/04 15:27:46;;;;;;;24.73;14.60;;;23.20;48.20;;;;;;7713212;22;83172;-61
2022/12/04 15:30:46;;;;;;;25.05;13.00;;;23.20;47.90;;;;;;7709893;22;84245;-61
2022/12/04 15:33:47;;;;;;;26.65;14.18;;;23.20;48.20;;;;;;7715939;22;83714;-61
2022/12/04 15:36:47;;;;;;;23.27;13.38;;;23.20;48.10;;;;;;7713357;22;84044;-61